Terminal Aerodrome Forecast
Issued by NWS

Home | Current Version | Previous Version | Text Only | Print | Product List | Glossary On
Versions: 1 2 3 4 5 6 7 8 9 10 11 12 13 14 15 16 17 18 19 20 21 22 23 24 25 26 27 28
797
FTUS43 KDLH 201746
TAFHIB
TAF
KHIB 201746Z 2018/2118 33006KT 3SM -SN BKN035 OVC045
     FM201900 31007KT 5SM -SN OVC045
     FM202000 31008KT P6SM VCSH BKN020
     FM210100 30007KT P6SM BKN040
     FM210400 29008KT P6SM SCT025
     FM210900 26006KT P6SM FEW080=

USA.gov is the U.S. government's official web portal to all federal, state and local government web resources and services.